Airfield :
LOGIN :

Register | Disclaimer

   EN    FR    IT 

 










Legend :    VFR   Marginal VFR   IFR   Intensive IFR   Very Intensive IFR
Visi :
Ceiling :
>= 8 km
>= 3000ft
5 to 8 km
1000 to 3000 ft
1500m to 5 km
500 to 1000 ft
800 to 1500m
200 to 500 ft
< 800m
< 200 ft
Symbols :   Thunderstorms  Fog  Heavy snow  Heavy precipitations  Wind > 20 kt
SIGMETs :     Misc.  Thunderstorms  Icing  Turbulence  Mountain Waves  Volcanic Ashes







- Airport Elevation : 56 ft
- IATA code : ODE


EKOD - Odense

CURRENT METAR :
  • 260750Z 08010KT CAVOK 15/11 Q1009

EXPIRED METARs :
  • 260720Z 08010KT CAVOK 14/11 Q1009
  • 260650Z 10011KT CAVOK 13/11 Q1009
  • 260550Z 10010KT 9999 FEW013 BKN140 13/10 Q1010

TAF TAF EKOD
Valid from the 26 at 06:00 until the 26 at 15:00 UTC


260558Z 2606/2615 10010KT CAVOK
TEMPO 2610/2615 4000 SHRA BKN008 SCT030CB
PROB40 2610/2613 TSRA
BECMG 2611/2613 29008KT
No reported NOTAMs for that airfield.
1 SIGMET reported for the Kobenhavn FIR (EKDK) :
 
Embedded thunderstorms
EKDK SIGMET 1 VALID 260725/260925 EKMI
EKDK KOBENHAVN FIR EMBD TS FCST AT 0725Z WI N5500 E00729 - N5515 E00740 - N5435 E01146 - N5427 E01140 - N5500 E00729 TOP FL360 NC FCST AT 0925Z WI N5500 E00728 - N5605 E00751 - N5546 E00922 - N5500 E01028 - N5436 E01109 - N5500 E00728=



MET'MAP, your aeronautical weather chart ! - Copyright ORBIFLY December 2007 - Disclaimer

ORBIFLY MET'MAP TEAM :

Programming & Development : Alexandra Zaïnal
Concept & Development : Baudouin d'Aumeries
Co-Development & Prog : Marc-Olivier Méhu
Technical & hardware support : Manuel Goepfert

Contact : metmap@orbifly.com




SOURCES & CREDITS :

   NOAA